sensor_id;sensor_type;location;lat;lon;timestamp;temperature;humidity
9446;DHT22;4761;49.490;10.908;2023-02-18T00:01:22;17.10;49.40
9446;DHT22;4761;49.490;10.908;2023-02-18T00:03:48;17.10;49.30
9446;DHT22;4761;49.490;10.908;2023-02-18T00:08:43;17.10;49.30
9446;DHT22;4761;49.490;10.908;2023-02-18T00:11:09;17.10;49.30
9446;DHT22;4761;49.490;10.908;2023-02-18T00:13:35;17.10;49.20
9446;DHT22;4761;49.490;10.908;2023-02-18T00:16:08;17.20;49.20
9446;DHT22;4761;49.490;10.908;2023-02-18T00:18:33;17.20;49.20
9446;DHT22;4761;49.490;10.908;2023-02-18T00:20:59;17.20;49.10
9446;DHT22;4761;49.490;10.908;2023-02-18T00:23:25;17.20;49.10
9446;DHT22;4761;49.490;10.908;2023-02-18T00:26:09;17.20;49.10
9446;DHT22;4761;49.490;10.908;2023-02-18T00:28:36;17.20;49.10
9446;DHT22;4761;49.490;10.908;2023-02-18T00:31:16;17.20;49.10
9446;DHT22;4761;49.490;10.908;2023-02-18T00:33:42;17.20;49.10
9446;DHT22;4761;49.490;10.908;2023-02-18T00:36:11;17.20;49.20
9446;DHT22;4761;49.490;10.908;2023-02-18T00:38:38;17.20;49.20
9446;DHT22;4761;49.490;10.908;2023-02-18T00:41:04;17.20;49.30
9446;DHT22;4761;49.490;10.908;2023-02-18T00:43:29;17.20;49.40
9446;DHT22;4761;49.490;10.908;2023-02-18T00:45:55;17.20;49.40
9446;DHT22;4761;49.490;10.908;2023-02-18T00:48:21;17.10;49.30
9446;DHT22;4761;49.490;10.908;2023-02-18T00:50:46;17.20;49.40
9446;DHT22;4761;49.490;10.908;2023-02-18T00:53:12;17.20;49.40
9446;DHT22;4761;49.490;10.908;2023-02-18T00:55:44;17.20;49.40
9446;DHT22;4761;49.490;10.908;2023-02-18T00:58:12;17.20;49.40
9446;DHT22;4761;49.490;10.908;2023-02-18T01:00:37;17.20;49.40
9446;DHT22;4761;49.490;10.908;2023-02-18T01:03:03;17.10;49.30
9446;DHT22;4761;49.490;10.908;2023-02-18T01:05:31;17.10;49.40
9446;DHT22;4761;49.490;10.908;2023-02-18T01:07:56;17.10;49.40
9446;DHT22;4761;49.490;10.908;2023-02-18T01:10:22;17.10;49.50
9446;DHT22;4761;49.490;10.908;2023-02-18T01:12:47;17.10;49.40
9446;DHT22;4761;49.490;10.908;2023-02-18T01:15:14;17.20;49.50
9446;DHT22;4761;49.490;10.908;2023-02-18T01:17:40;17.20;49.50
9446;DHT22;4761;49.490;10.908;2023-02-18T01:20:06;17.20;49.50
9446;DHT22;4761;49.490;10.908;2023-02-18T01:22:32;17.20;49.50
9446;DHT22;4761;49.490;10.908;2023-02-18T01:24:57;17.10;49.50
9446;DHT22;4761;49.490;10.908;2023-02-18T01:27:23;17.10;49.60
9446;DHT22;4761;49.490;10.908;2023-02-18T01:29:48;17.10;49.60
9446;DHT22;4761;49.490;10.908;2023-02-18T01:32:14;17.10;49.60
9446;DHT22;4761;49.490;10.908;2023-02-18T01:34:39;17.10;49.70
9446;DHT22;4761;49.490;10.908;2023-02-18T01:37:05;17.10;49.60
9446;DHT22;4761;49.490;10.908;2023-02-18T01:39:31;17.10;49.70
9446;DHT22;4761;49.490;10.908;2023-02-18T01:41:56;17.10;49.70
9446;DHT22;4761;49.490;10.908;2023-02-18T01:44:25;17.10;49.70
9446;DHT22;4761;49.490;10.908;2023-02-18T01:46:50;17.10;49.80
9446;DHT22;4761;49.490;10.908;2023-02-18T01:49:20;17.10;49.80
9446;DHT22;4761;49.490;10.908;2023-02-18T01:51:50;17.10;49.80
9446;DHT22;4761;49.490;10.908;2023-02-18T01:54:55;17.10;49.90
9446;DHT22;4761;49.490;10.908;2023-02-18T01:57:25;17.10;49.90
9446;DHT22;4761;49.490;10.908;2023-02-18T02:00:04;17.10;49.90
9446;DHT22;4761;49.490;10.908;2023-02-18T02:02:31;17.10;50.00
9446;DHT22;4761;49.490;10.908;2023-02-18T02:04:59;17.10;50.00
9446;DHT22;4761;49.490;10.908;2023-02-18T02:07:26;17.10;50.00
9446;DHT22;4761;49.490;10.908;2023-02-18T02:09:53;17.10;50.00
9446;DHT22;4761;49.490;10.908;2023-02-18T02:21:27;17.10;50.10
9446;DHT22;4761;49.490;10.908;2023-02-18T02:29:39;17.10;50.00
9446;DHT22;4761;49.490;10.908;2023-02-18T02:40:20;17.10;50.20
9446;DHT22;4761;49.490;10.908;2023-02-18T02:51:45;17.10;50.20
9446;DHT22;4761;49.490;10.908;2023-02-18T02:54:21;17.00;50.30
9446;DHT22;4761;49.490;10.908;2023-02-18T02:56:47;17.10;50.50
9446;DHT22;4761;49.490;10.908;2023-02-18T02:59:18;17.00;50.30
9446;DHT22;4761;49.490;10.908;2023-02-18T03:04:53;17.10;50.30
9446;DHT22;4761;49.490;10.908;2023-02-18T03:12:56;17.10;50.20
9446;DHT22;4761;49.490;10.908;2023-02-18T03:18:23;17.00;50.30
9446;DHT22;4761;49.490;10.908;2023-02-18T03:20:55;17.10;50.40
9446;DHT22;4761;49.490;10.908;2023-02-18T03:23:26;17.10;50.40
9446;DHT22;4761;49.490;10.908;2023-02-18T03:25:55;17.10;50.40
9446;DHT22;4761;49.490;10.908;2023-02-18T03:28:23;17.10;50.30
9446;DHT22;4761;49.490;10.908;2023-02-18T03:30:53;17.10;50.30
9446;DHT22;4761;49.490;10.908;2023-02-18T03:33:48;17.10;50.30
9446;DHT22;4761;49.490;10.908;2023-02-18T03:36:17;17.10;50.30
9446;DHT22;4761;49.490;10.908;2023-02-18T03:39:00;17.10;50.30
9446;DHT22;4761;49.490;10.908;2023-02-18T03:41:27;17.10;50.30
9446;DHT22;4761;49.490;10.908;2023-02-18T03:43:57;17.10;50.30
9446;DHT22;4761;49.490;10.908;2023-02-18T03:46:25;17.10;50.30
9446;DHT22;4761;49.490;10.908;2023-02-18T03:48:51;17.10;50.30
9446;DHT22;4761;49.490;10.908;2023-02-18T03:51:18;17.10;50.30
9446;DHT22;4761;49.490;10.908;2023-02-18T03:53:44;17.10;50.30
9446;DHT22;4761;49.490;10.908;2023-02-18T03:56:09;17.10;50.30
9446;DHT22;4761;49.490;10.908;2023-02-18T03:58:35;17.10;50.30
9446;DHT22;4761;49.490;10.908;2023-02-18T04:01:01;17.10;50.40
9446;DHT22;4761;49.490;10.908;2023-02-18T04:05:55;17.10;50.30
9446;DHT22;4761;49.490;10.908;2023-02-18T04:08:20;17.10;50.30
9446;DHT22;4761;49.490;10.908;2023-02-18T04:10:46;17.10;50.30
9446;DHT22;4761;49.490;10.908;2023-02-18T04:13:12;17.10;50.30
9446;DHT22;4761;49.490;10.908;2023-02-18T04:15:38;17.10;50.30
9446;DHT22;4761;49.490;10.908;2023-02-18T04:18:03;17.10;50.30
9446;DHT22;4761;49.490;10.908;2023-02-18T04:20:29;17.10;50.30
9446;DHT22;4761;49.490;10.908;2023-02-18T04:22:54;17.10;50.30
9446;DHT22;4761;49.490;10.908;2023-02-18T04:25:20;17.10;50.30
9446;DHT22;4761;49.490;10.908;2023-02-18T04:27:46;17.10;50.40
9446;DHT22;4761;49.490;10.908;2023-02-18T04:30:11;17.10;50.20
9446;DHT22;4761;49.490;10.908;2023-02-18T04:32:37;17.10;50.30
9446;DHT22;4761;49.490;10.908;2023-02-18T04:35:03;17.10;50.30
9446;DHT22;4761;49.490;10.908;2023-02-18T04:37:29;17.10;50.20
9446;DHT22;4761;49.490;10.908;2023-02-18T04:39:54;17.10;50.20
9446;DHT22;4761;49.490;10.908;2023-02-18T04:42:20;17.10;50.20
9446;DHT22;4761;49.490;10.908;2023-02-18T04:44:45;17.10;50.20
9446;DHT22;4761;49.490;10.908;2023-02-18T04:47:11;17.10;50.20
9446;DHT22;4761;49.490;10.908;2023-02-18T04:49:36;17.20;50.10
9446;DHT22;4761;49.490;10.908;2023-02-18T04:52:02;17.20;50.10
9446;DHT22;4761;49.490;10.908;2023-02-18T04:54:28;17.20;50.10
9446;DHT22;4761;49.490;10.908;2023-02-18T04:56:54;17.20;50.00
9446;DHT22;4761;49.490;10.908;2023-02-18T04:59:19;17.20;49.90
9446;DHT22;4761;49.490;10.908;2023-02-18T05:01:45;17.20;49.90
9446;DHT22;4761;49.490;10.908;2023-02-18T05:04:10;17.20;50.00
9446;DHT22;4761;49.490;10.908;2023-02-18T05:06:36;17.20;50.00
9446;DHT22;4761;49.490;10.908;2023-02-18T05:09:04;17.20;49.90
9446;DHT22;4761;49.490;10.908;2023-02-18T05:11:29;17.20;50.00
9446;DHT22;4761;49.490;10.908;2023-02-18T05:13:55;17.20;50.10
9446;DHT22;4761;49.490;10.908;2023-02-18T05:16:20;17.20;50.10
9446;DHT22;4761;49.490;10.908;2023-02-18T05:18:46;17.20;50.20
9446;DHT22;4761;49.490;10.908;2023-02-18T05:21:11;17.20;50.20
9446;DHT22;4761;49.490;10.908;2023-02-18T05:23:37;17.20;50.30
9446;DHT22;4761;49.490;10.908;2023-02-18T05:26:03;17.20;50.20
9446;DHT22;4761;49.490;10.908;2023-02-18T05:28:28;17.10;50.20
9446;DHT22;4761;49.490;10.908;2023-02-18T05:30:54;17.20;50.40
9446;DHT22;4761;49.490;10.908;2023-02-18T05:33:20;17.10;50.30
9446;DHT22;4761;49.490;10.908;2023-02-18T05:35:45;17.10;50.30
9446;DHT22;4761;49.490;10.908;2023-02-18T05:38:11;17.10;50.30
9446;DHT22;4761;49.490;10.908;2023-02-18T05:40:37;17.10;50.40
9446;DHT22;4761;49.490;10.908;2023-02-18T05:43:03;17.10;50.40
9446;DHT22;4761;49.490;10.908;2023-02-18T05:45:28;17.10;50.50
9446;DHT22;4761;49.490;10.908;2023-02-18T05:47:54;17.10;50.50
9446;DHT22;4761;49.490;10.908;2023-02-18T05:50:19;17.10;50.50
9446;DHT22;4761;49.490;10.908;2023-02-18T05:52:45;17.10;50.40
9446;DHT22;4761;49.490;10.908;2023-02-18T05:55:10;17.10;50.50
9446;DHT22;4761;49.490;10.908;2023-02-18T05:57:36;17.10;50.50
9446;DHT22;4761;49.490;10.908;2023-02-18T06:00:02;17.10;50.50
9446;DHT22;4761;49.490;10.908;2023-02-18T06:02:28;17.10;50.50
9446;DHT22;4761;49.490;10.908;2023-02-18T06:04:54;17.10;50.50
9446;DHT22;4761;49.490;10.908;2023-02-18T06:07:19;17.10;50.50
9446;DHT22;4761;49.490;10.908;2023-02-18T06:09:45;17.10;50.50
9446;DHT22;4761;49.490;10.908;2023-02-18T06:12:11;17.10;50.50
9446;DHT22;4761;49.490;10.908;2023-02-18T06:14:37;17.10;51.10
9446;DHT22;4761;49.490;10.908;2023-02-18T06:17:10;17.10;50.50
9446;DHT22;4761;49.490;10.908;2023-02-18T06:19:36;17.10;50.50
9446;DHT22;4761;49.490;10.908;2023-02-18T06:22:02;17.10;50.50
9446;DHT22;4761;49.490;10.908;2023-02-18T06:24:27;17.10;50.50
9446;DHT22;4761;49.490;10.908;2023-02-18T06:26:53;17.10;50.50
9446;DHT22;4761;49.490;10.908;2023-02-18T06:29:19;17.10;50.40
9446;DHT22;4761;49.490;10.908;2023-02-18T06:31:44;17.10;50.40
9446;DHT22;4761;49.490;10.908;2023-02-18T06:34:10;17.10;50.40
9446;DHT22;4761;49.490;10.908;2023-02-18T06:36:35;17.10;50.30
9446;DHT22;4761;49.490;10.908;2023-02-18T06:39:02;17.10;50.30
9446;DHT22;4761;49.490;10.908;2023-02-18T06:41:28;17.10;50.30
9446;DHT22;4761;49.490;10.908;2023-02-18T06:43:54;17.10;50.30
9446;DHT22;4761;49.490;10.908;2023-02-18T06:46:19;17.10;50.40
9446;DHT22;4761;49.490;10.908;2023-02-18T06:48:45;17.10;50.40
9446;DHT22;4761;49.490;10.908;2023-02-18T06:51:10;17.10;50.40
9446;DHT22;4761;49.490;10.908;2023-02-18T06:53:36;17.10;50.40
9446;DHT22;4761;49.490;10.908;2023-02-18T06:56:01;17.10;50.50
9446;DHT22;4761;49.490;10.908;2023-02-18T06:58:27;17.10;50.40
9446;DHT22;4761;49.490;10.908;2023-02-18T07:00:52;17.10;50.40
9446;DHT22;4761;49.490;10.908;2023-02-18T07:03:18;17.10;50.40
9446;DHT22;4761;49.490;10.908;2023-02-18T07:05:44;17.10;50.30
9446;DHT22;4761;49.490;10.908;2023-02-18T07:08:09;17.10;50.30
9446;DHT22;4761;49.490;10.908;2023-02-18T07:10:35;17.10;50.90
9446;DHT22;4761;49.490;10.908;2023-02-18T07:13:01;17.10;50.40
9446;DHT22;4761;49.490;10.908;2023-02-18T07:15:26;17.10;50.40
9446;DHT22;4761;49.490;10.908;2023-02-18T07:17:52;17.10;50.40
9446;DHT22;4761;49.490;10.908;2023-02-18T07:20:19;17.10;50.30
9446;DHT22;4761;49.490;10.908;2023-02-18T07:22:45;17.10;50.30
9446;DHT22;4761;49.490;10.908;2023-02-18T07:25:10;17.10;50.30
9446;DHT22;4761;49.490;10.908;2023-02-18T07:27:36;17.10;50.30
9446;DHT22;4761;49.490;10.908;2023-02-18T07:30:02;17.10;50.30
9446;DHT22;4761;49.490;10.908;2023-02-18T07:32:27;17.10;50.30
9446;DHT22;4761;49.490;10.908;2023-02-18T07:34:53;17.10;50.40
9446;DHT22;4761;49.490;10.908;2023-02-18T07:37:19;17.10;50.40
9446;DHT22;4761;49.490;10.908;2023-02-18T07:39:45;17.10;50.30
9446;DHT22;4761;49.490;10.908;2023-02-18T07:42:11;17.10;50.30
9446;DHT22;4761;49.490;10.908;2023-02-18T07:44:38;17.10;50.30
9446;DHT22;4761;49.490;10.908;2023-02-18T07:47:05;17.10;50.30
9446;DHT22;4761;49.490;10.908;2023-02-18T07:49:31;17.10;50.30
9446;DHT22;4761;49.490;10.908;2023-02-18T07:51:56;17.10;50.40
9446;DHT22;4761;49.490;10.908;2023-02-18T07:54:22;17.10;50.40
9446;DHT22;4761;49.490;10.908;2023-02-18T07:56:48;17.10;50.40
9446;DHT22;4761;49.490;10.908;2023-02-18T07:59:14;17.10;50.50
9446;DHT22;4761;49.490;10.908;2023-02-18T08:01:40;17.10;51.10
9446;DHT22;4761;49.490;10.908;2023-02-18T08:04:06;16.90;53.20
9446;DHT22;4761;49.490;10.908;2023-02-18T08:06:37;16.80;54.10
9446;DHT22;4761;49.490;10.908;2023-02-18T08:09:04;16.80;54.60
9446;DHT22;4761;49.490;10.908;2023-02-18T08:11:29;16.80;54.70
9446;DHT22;4761;49.490;10.908;2023-02-18T08:13:55;16.90;54.70
9446;DHT22;4761;49.490;10.908;2023-02-18T08:16:21;16.90;55.10
9446;DHT22;4761;49.490;10.908;2023-02-18T08:18:48;16.90;55.30
9446;DHT22;4761;49.490;10.908;2023-02-18T08:21:15;16.90;55.30
9446;DHT22;4761;49.490;10.908;2023-02-18T08:23:40;17.00;55.40
9446;DHT22;4761;49.490;10.908;2023-02-18T08:26:06;17.00;55.40
9446;DHT22;4761;49.490;10.908;2023-02-18T08:28:32;17.10;55.30
9446;DHT22;4761;49.490;10.908;2023-02-18T08:30:58;17.10;55.30
9446;DHT22;4761;49.490;10.908;2023-02-18T08:33:24;17.10;54.80
9446;DHT22;4761;49.490;10.908;2023-02-18T08:35:52;17.20;55.00
9446;DHT22;4761;49.490;10.908;2023-02-18T08:38:18;17.20;54.70
9446;DHT22;4761;49.490;10.908;2023-02-18T08:40:44;17.30;54.70
9446;DHT22;4761;49.490;10.908;2023-02-18T08:43:10;17.30;54.70
9446;DHT22;4761;49.490;10.908;2023-02-18T08:45:37;17.30;54.40
9446;DHT22;4761;49.490;10.908;2023-02-18T08:48:04;17.30;54.50
9446;DHT22;4761;49.490;10.908;2023-02-18T08:50:30;17.40;54.70
9446;DHT22;4761;49.490;10.908;2023-02-18T08:52:55;17.40;54.70
9446;DHT22;4761;49.490;10.908;2023-02-18T08:55:21;17.40;54.40
9446;DHT22;4761;49.490;10.908;2023-02-18T08:57:47;17.50;54.60
9446;DHT22;4761;49.490;10.908;2023-02-18T09:00:15;17.50;54.00
9446;DHT22;4761;49.490;10.908;2023-02-18T09:02:40;17.50;53.70
9446;DHT22;4761;49.490;10.908;2023-02-18T09:05:06;17.60;48.90
9446;DHT22;4761;49.490;10.908;2023-02-18T09:07:34;17.70;48.70
9446;DHT22;4761;49.490;10.908;2023-02-18T09:09:59;17.60;48.80
9446;DHT22;4761;49.490;10.908;2023-02-18T09:12:25;17.60;48.90
9446;DHT22;4761;49.490;10.908;2023-02-18T09:14:51;17.50;48.80
9446;DHT22;4761;49.490;10.908;2023-02-18T09:17:16;17.50;49.00
9446;DHT22;4761;49.490;10.908;2023-02-18T09:19:42;17.50;49.10
9446;DHT22;4761;49.490;10.908;2023-02-18T09:22:07;17.50;49.10
9446;DHT22;4761;49.490;10.908;2023-02-18T09:24:40;17.50;49.10
9446;DHT22;4761;49.490;10.908;2023-02-18T09:27:07;17.50;49.10
9446;DHT22;4761;49.490;10.908;2023-02-18T09:29:33;17.40;49.10
9446;DHT22;4761;49.490;10.908;2023-02-18T09:32:02;17.40;49.10
9446;DHT22;4761;49.490;10.908;2023-02-18T09:34:28;17.40;49.30
9446;DHT22;4761;49.490;10.908;2023-02-18T09:36:54;17.40;49.30
9446;DHT22;4761;49.490;10.908;2023-02-18T09:39:19;17.40;49.40
9446;DHT22;4761;49.490;10.908;2023-02-18T09:41:53;17.40;49.40
9446;DHT22;4761;49.490;10.908;2023-02-18T09:44:24;17.40;49.30
9446;DHT22;4761;49.490;10.908;2023-02-18T09:46:58;17.40;49.40
9446;DHT22;4761;49.490;10.908;2023-02-18T09:49:27;17.40;49.40
9446;DHT22;4761;49.490;10.908;2023-02-18T09:51:55;17.40;49.30
9446;DHT22;4761;49.490;10.908;2023-02-18T09:54:20;17.40;49.40
9446;DHT22;4761;49.490;10.908;2023-02-18T09:56:47;17.40;49.50
9446;DHT22;4761;49.490;10.908;2023-02-18T09:59:19;17.40;50.00
9446;DHT22;4761;49.490;10.908;2023-02-18T10:01:47;17.40;49.30
9446;DHT22;4761;49.490;10.908;2023-02-18T10:04:22;17.40;49.30
9446;DHT22;4761;49.490;10.908;2023-02-18T10:06:53;17.30;49.20
9446;DHT22;4761;49.490;10.908;2023-02-18T10:09:31;17.40;49.30
9446;DHT22;4761;49.490;10.908;2023-02-18T10:12:15;17.40;49.40
9446;DHT22;4761;49.490;10.908;2023-02-18T10:14:43;17.40;49.40
9446;DHT22;4761;49.490;10.908;2023-02-18T10:17:14;17.30;49.30
9446;DHT22;4761;49.490;10.908;2023-02-18T10:19:43;17.30;49.40
9446;DHT22;4761;49.490;10.908;2023-02-18T10:22:11;17.30;49.40
9446;DHT22;4761;49.490;10.908;2023-02-18T10:24:45;17.40;49.50
9446;DHT22;4761;49.490;10.908;2023-02-18T10:27:18;17.30;49.50
9446;DHT22;4761;49.490;10.908;2023-02-18T10:29:46;17.30;49.50
9446;DHT22;4761;49.490;10.908;2023-02-18T10:32:23;17.30;49.50
9446;DHT22;4761;49.490;10.908;2023-02-18T10:35:02;17.30;49.40
9446;DHT22;4761;49.490;10.908;2023-02-18T10:46:11;17.30;49.40
9446;DHT22;4761;49.490;10.908;2023-02-18T10:51:23;17.30;49.40
9446;DHT22;4761;49.490;10.908;2023-02-18T10:53:52;17.30;49.50
9446;DHT22;4761;49.490;10.908;2023-02-18T11:01:38;17.30;49.40
9446;DHT22;4761;49.490;10.908;2023-02-18T11:04:17;17.30;49.50
9446;DHT22;4761;49.490;10.908;2023-02-18T11:06:48;17.30;49.50
9446;DHT22;4761;49.490;10.908;2023-02-18T11:09:28;17.30;49.50
9446;DHT22;4761;49.490;10.908;2023-02-18T11:12:03;17.20;49.40
9446;DHT22;4761;49.490;10.908;2023-02-18T11:14:47;17.30;49.50
9446;DHT22;4761;49.490;10.908;2023-02-18T11:17:21;17.30;49.50
9446;DHT22;4761;49.490;10.908;2023-02-18T11:19:58;17.30;49.50
9446;DHT22;4761;49.490;10.908;2023-02-18T11:22:29;17.30;49.40
9446;DHT22;4761;49.490;10.908;2023-02-18T11:25:00;17.30;49.40
9446;DHT22;4761;49.490;10.908;2023-02-18T11:27:31;17.30;49.40
9446;DHT22;4761;49.490;10.908;2023-02-18T11:30:03;17.30;49.30
9446;DHT22;4761;49.490;10.908;2023-02-18T11:32:30;17.30;49.40
9446;DHT22;4761;49.490;10.908;2023-02-18T11:34:58;17.30;49.40
9446;DHT22;4761;49.490;10.908;2023-02-18T11:37:23;17.30;49.40
9446;DHT22;4761;49.490;10.908;2023-02-18T11:39:52;17.30;49.40
9446;DHT22;4761;49.490;10.908;2023-02-18T11:42:21;17.20;49.40
9446;DHT22;4761;49.490;10.908;2023-02-18T11:44:57;17.30;49.50
9446;DHT22;4761;49.490;10.908;2023-02-18T11:47:36;17.20;49.40
9446;DHT22;4761;49.490;10.908;2023-02-18T11:50:19;17.20;49.40
9446;DHT22;4761;49.490;10.908;2023-02-18T11:52:48;17.20;49.30
9446;DHT22;4761;49.490;10.908;2023-02-18T11:55:18;17.20;49.30
9446;DHT22;4761;49.490;10.908;2023-02-18T11:57:52;17.30;49.40
9446;DHT22;4761;49.490;10.908;2023-02-18T12:00:42;17.30;49.40
9446;DHT22;4761;49.490;10.908;2023-02-18T12:05:53;17.30;49.30
9446;DHT22;4761;49.490;10.908;2023-02-18T12:08:23;17.30;49.30
9446;DHT22;4761;49.490;10.908;2023-02-18T12:10:56;17.30;49.40
9446;DHT22;4761;49.490;10.908;2023-02-18T12:13:37;17.30;49.40
9446;DHT22;4761;49.490;10.908;2023-02-18T12:29:43;17.30;49.30
9446;DHT22;4761;49.490;10.908;2023-02-18T12:32:17;17.30;49.30
9446;DHT22;4761;49.490;10.908;2023-02-18T12:37:42;17.30;49.20
9446;DHT22;4761;49.490;10.908;2023-02-18T12:40:35;17.30;49.20
9446;DHT22;4761;49.490;10.908;2023-02-18T12:46:18;17.30;49.20
9446;DHT22;4761;49.490;10.908;2023-02-18T12:51:41;17.20;49.20
9446;DHT22;4761;49.490;10.908;2023-02-18T13:00:21;17.20;49.20
9446;DHT22;4761;49.490;10.908;2023-02-18T13:05:31;17.20;49.10
9446;DHT22;4761;49.490;10.908;2023-02-18T13:08:24;17.30;49.20
9446;DHT22;4761;49.490;10.908;2023-02-18T13:13:33;17.30;49.00
9446;DHT22;4761;49.490;10.908;2023-02-18T13:16:03;17.30;48.90
9446;DHT22;4761;49.490;10.908;2023-02-18T13:18:42;17.40;48.90
9446;DHT22;4761;49.490;10.908;2023-02-18T13:21:12;17.40;48.80
9446;DHT22;4761;49.490;10.908;2023-02-18T13:26:38;17.40;48.80
9446;DHT22;4761;49.490;10.908;2023-02-18T13:34:38;17.40;48.90
9446;DHT22;4761;49.490;10.908;2023-02-18T13:39:54;17.40;49.00
9446;DHT22;4761;49.490;10.908;2023-02-18T13:47:41;17.40;48.80
9446;DHT22;4761;49.490;10.908;2023-02-18T13:56:20;17.40;48.80
9446;DHT22;4761;49.490;10.908;2023-02-18T14:01:44;17.40;48.90
9446;DHT22;4761;49.490;10.908;2023-02-18T14:04:46;17.30;48.80
9446;DHT22;4761;49.490;10.908;2023-02-18T14:10:03;17.30;49.00
9446;DHT22;4761;49.490;10.908;2023-02-18T14:14:58;17.30;49.00
9446;DHT22;4761;49.490;10.908;2023-02-18T14:22:48;17.30;49.00
9446;DHT22;4761;49.490;10.908;2023-02-18T14:25:21;17.30;49.00
9446;DHT22;4761;49.490;10.908;2023-02-18T14:27:52;17.30;49.00
9446;DHT22;4761;49.490;10.908;2023-02-18T14:32:49;17.30;48.90
9446;DHT22;4761;49.490;10.908;2023-02-18T14:38:09;17.30;48.90
9446;DHT22;4761;49.490;10.908;2023-02-18T14:40:55;17.30;48.80
9446;DHT22;4761;49.490;10.908;2023-02-18T14:49:02;17.30;48.90
9446;DHT22;4761;49.490;10.908;2023-02-18T14:51:31;17.30;48.90
9446;DHT22;4761;49.490;10.908;2023-02-18T14:54:05;17.30;49.00
9446;DHT22;4761;49.490;10.908;2023-02-18T14:56:32;17.30;49.00
9446;DHT22;4761;49.490;10.908;2023-02-18T14:59:03;17.20;49.00
9446;DHT22;4761;49.490;10.908;2023-02-18T15:01:32;17.30;49.00
9446;DHT22;4761;49.490;10.908;2023-02-18T15:04:00;17.20;49.00
9446;DHT22;4761;49.490;10.908;2023-02-18T15:06:31;17.20;49.00
9446;DHT22;4761;49.490;10.908;2023-02-18T15:09:06;17.20;49.20
9446;DHT22;4761;49.490;10.908;2023-02-18T15:11:40;17.20;49.20
9446;DHT22;4761;49.490;10.908;2023-02-18T15:14:15;17.20;49.10
9446;DHT22;4761;49.490;10.908;2023-02-18T15:16:43;17.20;49.10
9446;DHT22;4761;49.490;10.908;2023-02-18T15:19:15;17.20;49.20
9446;DHT22;4761;49.490;10.908;2023-02-18T15:21:50;17.20;49.20
9446;DHT22;4761;49.490;10.908;2023-02-18T15:26:45;17.20;49.20
9446;DHT22;4761;49.490;10.908;2023-02-18T15:29:24;17.20;49.20
9446;DHT22;4761;49.490;10.908;2023-02-18T15:31:50;17.20;49.20
9446;DHT22;4761;49.490;10.908;2023-02-18T15:34:33;17.20;49.30
9446;DHT22;4761;49.490;10.908;2023-02-18T15:37:01;17.20;49.30
9446;DHT22;4761;49.490;10.908;2023-02-18T15:39:28;17.20;49.30
9446;DHT22;4761;49.490;10.908;2023-02-18T15:42:00;17.20;49.20
9446;DHT22;4761;49.490;10.908;2023-02-18T15:44:30;17.20;49.30
9446;DHT22;4761;49.490;10.908;2023-02-18T15:47:05;17.20;49.30
9446;DHT22;4761;49.490;10.908;2023-02-18T15:49:32;17.20;49.40
9446;DHT22;4761;49.490;10.908;2023-02-18T15:52:01;17.20;49.30
9446;DHT22;4761;49.490;10.908;2023-02-18T15:54:27;17.20;49.30
9446;DHT22;4761;49.490;10.908;2023-02-18T15:56:55;17.20;49.30
9446;DHT22;4761;49.490;10.908;2023-02-18T15:59:27;17.20;49.30
9446;DHT22;4761;49.490;10.908;2023-02-18T16:02:15;17.20;49.30
9446;DHT22;4761;49.490;10.908;2023-02-18T16:04:46;17.20;49.30
9446;DHT22;4761;49.490;10.908;2023-02-18T16:07:23;17.20;49.40
9446;DHT22;4761;49.490;10.908;2023-02-18T16:09:50;17.20;49.40
9446;DHT22;4761;49.490;10.908;2023-02-18T16:12:28;17.20;49.30
9446;DHT22;4761;49.490;10.908;2023-02-18T16:14:56;17.20;49.30
9446;DHT22;4761;49.490;10.908;2023-02-18T16:17:24;17.20;49.30
9446;DHT22;4761;49.490;10.908;2023-02-18T16:20:15;17.30;49.30
9446;DHT22;4761;49.490;10.908;2023-02-18T16:22:49;17.30;49.20
9446;DHT22;4761;49.490;10.908;2023-02-18T16:25:20;17.30;49.20
9446;DHT22;4761;49.490;10.908;2023-02-18T16:27:53;17.30;49.20
9446;DHT22;4761;49.490;10.908;2023-02-18T16:30:30;17.30;49.10
9446;DHT22;4761;49.490;10.908;2023-02-18T16:32:57;17.30;49.10
9446;DHT22;4761;49.490;10.908;2023-02-18T16:35:25;17.30;49.10
9446;DHT22;4761;49.490;10.908;2023-02-18T16:37:52;17.30;49.10
9446;DHT22;4761;49.490;10.908;2023-02-18T16:43:00;17.30;49.10
9446;DHT22;4761;49.490;10.908;2023-02-18T16:45:32;17.30;49.20
9446;DHT22;4761;49.490;10.908;2023-02-18T16:47:58;17.30;49.20
9446;DHT22;4761;49.490;10.908;2023-02-18T16:50:27;17.30;49.20
9446;DHT22;4761;49.490;10.908;2023-02-18T16:52:54;17.30;49.30
9446;DHT22;4761;49.490;10.908;2023-02-18T16:55:21;17.30;49.20
9446;DHT22;4761;49.490;10.908;2023-02-18T16:57:47;17.30;49.20
9446;DHT22;4761;49.490;10.908;2023-02-18T17:00:15;17.30;49.10
9446;DHT22;4761;49.490;10.908;2023-02-18T17:02:42;17.30;49.20
9446;DHT22;4761;49.490;10.908;2023-02-18T17:05:15;17.30;49.20
9446;DHT22;4761;49.490;10.908;2023-02-18T17:07:42;17.30;49.20
9446;DHT22;4761;49.490;10.908;2023-02-18T17:10:07;17.30;49.20
9446;DHT22;4761;49.490;10.908;2023-02-18T17:12:33;17.30;49.40
9446;DHT22;4761;49.490;10.908;2023-02-18T17:14:58;17.30;49.40
9446;DHT22;4761;49.490;10.908;2023-02-18T17:17:24;17.30;49.40
9446;DHT22;4761;49.490;10.908;2023-02-18T17:19:49;17.30;49.40
9446;DHT22;4761;49.490;10.908;2023-02-18T17:22:15;17.30;49.40
9446;DHT22;4761;49.490;10.908;2023-02-18T17:24:41;17.30;49.40
9446;DHT22;4761;49.490;10.908;2023-02-18T17:27:08;17.30;49.50
9446;DHT22;4761;49.490;10.908;2023-02-18T17:29:35;17.30;49.50
9446;DHT22;4761;49.490;10.908;2023-02-18T17:32:00;17.20;49.50
9446;DHT22;4761;49.490;10.908;2023-02-18T17:34:28;17.30;49.60
9446;DHT22;4761;49.490;10.908;2023-02-18T17:36:55;17.20;49.50
9446;DHT22;4761;49.490;10.908;2023-02-18T17:39:21;17.30;49.50
9446;DHT22;4761;49.490;10.908;2023-02-18T17:41:47;17.30;49.50
9446;DHT22;4761;49.490;10.908;2023-02-18T17:44:19;17.30;49.50
9446;DHT22;4761;49.490;10.908;2023-02-18T17:46:45;17.30;49.50
9446;DHT22;4761;49.490;10.908;2023-02-18T17:49:13;17.30;49.50
9446;DHT22;4761;49.490;10.908;2023-02-18T17:51:39;17.30;49.60
9446;DHT22;4761;49.490;10.908;2023-02-18T17:56:36;17.20;49.60
9446;DHT22;4761;49.490;10.908;2023-02-18T17:59:02;17.30;49.70
9446;DHT22;4761;49.490;10.908;2023-02-18T18:01:27;17.30;49.70
9446;DHT22;4761;49.490;10.908;2023-02-18T18:03:53;17.30;49.60
9446;DHT22;4761;49.490;10.908;2023-02-18T18:06:19;17.20;49.50
9446;DHT22;4761;49.490;10.908;2023-02-18T18:08:45;17.20;49.50
9446;DHT22;4761;49.490;10.908;2023-02-18T18:11:18;17.30;49.60
9446;DHT22;4761;49.490;10.908;2023-02-18T18:13:44;17.20;49.50
9446;DHT22;4761;49.490;10.908;2023-02-18T18:16:12;17.20;49.60
9446;DHT22;4761;49.490;10.908;2023-02-18T18:18:38;17.20;49.60
9446;DHT22;4761;49.490;10.908;2023-02-18T18:21:04;17.20;49.60
9446;DHT22;4761;49.490;10.908;2023-02-18T18:23:30;17.30;49.70
9446;DHT22;4761;49.490;10.908;2023-02-18T18:25:58;17.20;49.50
9446;DHT22;4761;49.490;10.908;2023-02-18T18:28:25;17.30;49.60
9446;DHT22;4761;49.490;10.908;2023-02-18T18:30:52;17.20;49.50